Time;durP1;ratioP1;P1;durP2;ratioP2;P2;SDS_P1;SDS_P2;PMS_P1;PMS_P2;Temp;Humidity;BMP_temperature;BMP_pressure;BME280_temperature;BME280_humidity;BME280_pressure;Samples;Min_cycle;Max_cycle;Signal;HPM_P1;HPM_P2
2022/10/27 00:02:03;;;;;;;12.35;3.53;;;17.20;99.90;;;;;;5005407;28;20053;-73
2022/10/27 00:04:29;;;;;;;6.43;3.00;;;17.20;99.90;;;;;;5006038;28;20032;-73
2022/10/27 00:06:55;;;;;;;10.65;3.33;;;17.10;99.90;;;;;;5010164;28;20042;-76
2022/10/27 00:09:20;;;;;;;3.47;2.58;;;17.10;99.90;;;;;;5005006;28;20085;-72
2022/10/27 00:11:48;;;;;;;4.55;2.85;;;17.10;99.90;;;;;;5010426;28;20096;-75
2022/10/27 00:14:14;;;;;;;7.30;3.53;;;17.00;99.90;;;;;;5010869;28;20030;-74
2022/10/27 00:16:40;;;;;;;11.02;3.45;;;17.00;99.90;;;;;;5008284;28;20056;-75
2022/10/27 00:19:05;;;;;;;10.98;3.40;;;16.90;99.90;;;;;;5011142;28;20810;-75
2022/10/27 00:21:31;;;;;;;5.25;2.95;;;16.90;99.90;;;;;;5007889;28;20042;-73
2022/10/27 00:23:59;;;;;;;6.63;3.45;;;16.90;99.90;;;;;;5009479;28;20344;-75
2022/10/27 00:26:27;;;;;;;9.55;2.80;;;16.80;99.90;;;;;;5001592;28;20022;-73
2022/10/27 00:28:57;;;;;;;10.77;3.33;;;16.80;99.90;;;;;;4999065;28;20034;-73
2022/10/27 00:31:23;;;;;;;7.25;3.45;;;16.80;99.90;;;;;;5006305;28;20502;-73
2022/10/27 00:33:51;;;;;;;6.93;3.22;;;16.80;99.90;;;;;;5000373;28;20109;-74
2022/10/27 00:36:22;;;;;;;12.25;3.03;;;16.80;99.90;;;;;;5003609;28;20103;-73
2022/10/27 00:38:50;;;;;;;6.00;3.53;;;16.80;99.90;;;;;;4997439;28;20015;-75
2022/10/27 00:41:35;;;;;;;12.20;3.25;;;16.80;99.90;;;;;;5001424;28;20026;-75
2022/10/27 00:44:30;;;;;;;10.95;3.65;;;16.80;99.90;;;;;;5001624;28;20026;-74
2022/10/27 00:46:58;;;;;;;4.80;2.92;;;16.80;99.90;;;;;;5001438;28;20030;-74
2022/10/27 00:49:31;;;;;;;7.30;2.97;;;16.80;99.90;;;;;;5001980;28;20569;-73
2022/10/27 00:52:05;;;;;;;;;;;16.70;99.90;;;;;;4999914;28;20049;-72
2022/10/27 00:54:37;;;;;;;9.82;3.20;;;16.70;99.90;;;;;;5004025;28;19909;-72
2022/10/27 00:57:04;;;;;;;12.70;3.30;;;16.70;99.90;;;;;;5004330;28;20033;-72
2022/10/27 00:59:34;;;;;;;7.65;3.15;;;16.70;99.90;;;;;;5006664;28;20768;-72
2022/10/27 01:02:00;;;;;;;18.45;3.42;;;16.60;99.90;;;;;;5014908;28;20107;-72
2022/10/27 01:04:34;;;;;;;11.50;3.42;;;16.60;99.90;;;;;;4999242;28;20022;-72
2022/10/27 01:07:00;;;;;;;8.70;3.33;;;16.60;99.90;;;;;;5000374;28;20049;-72
2022/10/27 01:09:29;;;;;;;12.40;3.30;;;16.60;99.90;;;;;;5002089;28;20026;-72
2022/10/27 01:11:54;;;;;;;7.90;3.30;;;16.60;99.90;;;;;;5008128;28;20469;-72
2022/10/27 01:14:20;;;;;;;10.65;3.42;;;16.60;99.90;;;;;;5001085;28;20113;-72
2022/10/27 01:17:27;;;;;;;6.00;3.53;;;16.50;99.90;;;;;;5004416;28;20355;-72
2022/10/27 01:20:01;;;;;;;7.63;3.00;;;16.50;99.90;;;;;;5017034;28;20034;-72
2022/10/27 01:22:46;;;;;;;9.63;3.30;;;16.50;99.90;;;;;;4999067;28;20033;-72
2022/10/27 01:25:28;;;;;;;8.20;3.80;;;16.50;99.90;;;;;;5000624;28;20022;-72
2022/10/27 01:28:27;;;;;;;11.17;3.63;;;16.50;99.90;;;;;;5003746;28;20061;-72
2022/10/27 01:31:02;;;;;;;8.40;3.55;;;16.40;99.90;;;;;;5002727;28;20105;-72
2022/10/27 01:33:47;;;;;;;13.23;4.15;;;16.40;99.90;;;;;;5003162;28;20053;-73
2022/10/27 01:36:23;;;;;;;8.40;3.78;;;16.40;99.90;;;;;;4998021;28;20030;-72
2022/10/27 01:39:01;;;;;;;10.38;3.42;;;16.40;99.90;;;;;;4998558;28;20096;-73
2022/10/27 01:41:32;;;;;;;8.73;3.67;;;16.40;99.90;;;;;;5000552;28;20042;-73
2022/10/27 01:44:08;;;;;;;16.17;3.78;;;16.40;99.90;;;;;;5006163;28;20053;-72
2022/10/27 01:46:36;;;;;;;13.70;3.72;;;16.30;99.90;;;;;;5008622;28;20101;-72
2022/10/27 01:49:06;;;;;;;14.07;4.15;;;16.30;99.90;;;;;;5014810;28;20053;-72
2022/10/27 01:51:34;;;;;;;13.30;4.70;;;16.30;99.90;;;;;;5017562;28;20109;-74
2022/10/27 01:54:00;;;;;;;14.25;4.25;;;16.30;99.90;;;;;;5013179;28;20022;-74
2022/10/27 01:56:34;;;;;;;14.93;5.10;;;16.30;99.90;;;;;;5005790;28;20042;-72
2022/10/27 01:59:08;;;;;;;14.95;4.45;;;16.20;99.90;;;;;;5003046;28;20019;-74
2022/10/27 02:01:43;;;;;;;9.60;4.78;;;16.20;99.90;;;;;;5005510;28;20054;-73
2022/10/27 02:04:33;;;;;;;12.75;4.55;;;16.20;99.90;;;;;;5004720;28;20332;-74
2022/10/27 02:07:17;;;;;;;8.73;4.20;;;16.20;99.90;;;;;;5005604;28;20087;-72
2022/10/27 02:10:02;;;;;;;14.43;4.75;;;16.20;99.90;;;;;;5006265;28;20037;-72
2022/10/27 02:12:31;;;;;;;17.92;4.88;;;16.10;99.90;;;;;;5007094;28;20079;-73
2022/10/27 02:15:00;;;;;;;13.18;4.50;;;16.10;99.90;;;;;;5015800;28;20117;-72
2022/10/27 02:17:33;;;;;;;9.73;3.65;;;16.10;99.90;;;;;;5003503;28;20057;-72
2022/10/27 02:20:05;;;;;;;14.38;5.40;;;16.10;99.90;;;;;;5006881;28;20746;-72
2022/10/27 02:22:31;;;;;;;10.05;4.15;;;16.10;99.90;;;;;;5005336;28;20115;-72
2022/10/27 02:25:00;;;;;;;16.33;4.28;;;16.10;99.90;;;;;;5005169;28;20026;-72
2022/10/27 02:27:39;;;;;;;15.82;4.68;;;16.10;99.90;;;;;;5002288;28;20037;-72
2022/10/27 02:30:05;;;;;;;17.02;5.43;;;16.10;99.90;;;;;;5003675;28;20085;-72
2022/10/27 02:32:35;;;;;;;16.08;5.55;;;16.10;99.90;;;;;;5005019;28;20105;-72
2022/10/27 02:35:01;;;;;;;17.30;5.75;;;16.10;99.90;;;;;;5004327;28;20033;-72
2022/10/27 02:37:34;;;;;;;17.55;5.40;;;16.00;99.90;;;;;;5004359;28;20082;-73
2022/10/27 02:40:05;;;;;;;19.73;5.50;;;16.00;99.90;;;;;;5006217;28;20030;-72
2022/10/27 02:42:31;;;;;;;15.30;6.13;;;15.90;99.90;;;;;;5004875;28;20078;-72
2022/10/27 02:44:56;;;;;;;16.90;5.82;;;15.90;99.90;;;;;;5002436;28;20064;-73
2022/10/27 02:47:22;;;;;;;10.63;5.18;;;15.80;99.90;;;;;;5000864;28;20031;-72
2022/10/27 02:49:48;;;;;;;21.77;6.20;;;15.80;99.90;;;;;;5002557;28;20418;-72
2022/10/27 02:52:14;;;;;;;24.05;5.75;;;15.80;99.90;;;;;;5018150;28;20030;-72
2022/10/27 02:54:41;;;;;;;22.88;6.80;;;15.80;99.90;;;;;;5006239;28;20037;-72
2022/10/27 02:57:07;;;;;;;21.70;5.88;;;15.80;99.90;;;;;;5008914;28;20027;-72
2022/10/27 02:59:33;;;;;;;17.45;6.03;;;15.70;99.90;;;;;;5003846;28;20096;-73
2022/10/27 03:01:59;;;;;;;17.70;6.35;;;15.80;99.90;;;;;;5006125;28;20104;-73
2022/10/27 03:04:25;;;;;;;17.50;5.18;;;15.70;99.90;;;;;;5000742;28;20050;-73
2022/10/27 03:06:50;;;;;;;12.48;5.25;;;15.70;99.90;;;;;;5003069;28;20085;-72
2022/10/27 03:09:16;;;;;;;17.58;5.13;;;15.70;99.90;;;;;;5003356;28;20026;-73
2022/10/27 03:11:44;;;;;;;16.83;5.43;;;15.70;99.90;;;;;;4998551;28;20081;-72
2022/10/27 03:14:09;;;;;;;13.05;5.38;;;15.70;99.90;;;;;;5000566;28;20038;-71
2022/10/27 03:16:35;;;;;;;17.58;6.13;;;15.60;99.90;;;;;;5008852;28;20026;-72
2022/10/27 03:19:00;;;;;;;15.52;5.15;;;15.60;99.90;;;;;;5005899;28;20465;-72
2022/10/27 03:21:28;;;;;;;13.95;4.63;;;15.60;99.90;;;;;;5009532;28;20029;-72
2022/10/27 03:23:56;;;;;;;14.77;4.80;;;15.60;99.90;;;;;;5009640;28;20018;-72
2022/10/27 03:26:24;;;;;;;11.40;4.25;;;15.60;99.90;;;;;;5004839;28;20030;-72
2022/10/27 03:28:50;;;;;;;11.35;4.07;;;15.60;99.90;;;;;;5000984;28;20412;-73
2022/10/27 03:31:15;;;;;;;21.00;4.35;;;15.50;99.90;;;;;;5000617;28;20057;-72
2022/10/27 03:33:41;;;;;;;9.70;4.57;;;15.50;99.90;;;;;;5001915;28;20045;-74
2022/10/27 03:36:07;;;;;;;16.17;4.75;;;15.50;99.90;;;;;;5005313;28;20030;-71
2022/10/27 03:38:35;;;;;;;13.10;4.43;;;15.50;99.90;;;;;;5000641;28;20033;-74
2022/10/27 03:41:03;;;;;;;11.20;4.80;;;15.40;99.90;;;;;;5001513;28;20033;-73
2022/10/27 03:43:31;;;;;;;14.07;4.80;;;15.40;99.90;;;;;;5004337;28;20045;-73
2022/10/27 03:45:56;;;;;;;12.90;3.90;;;15.40;99.90;;;;;;5003598;28;20058;-72
2022/10/27 03:48:22;;;;;;;15.73;4.82;;;15.30;99.90;;;;;;5005796;28;20467;-72
2022/10/27 03:50:49;;;;;;;21.52;4.47;;;15.20;99.90;;;;;;5005421;28;20025;-73
2022/10/27 03:53:19;;;;;;;11.20;4.55;;;15.20;99.90;;;;;;5004819;28;20034;-73
2022/10/27 03:55:47;;;;;;;16.90;4.60;;;15.20;99.90;;;;;;5000140;28;20105;-72
2022/10/27 03:58:14;;;;;;;11.55;4.78;;;15.10;99.90;;;;;;4999510;28;20022;-73
2022/10/27 04:00:40;;;;;;;19.98;4.63;;;15.10;99.90;;;;;;5002710;28;20021;-72
2022/10/27 04:03:08;;;;;;;9.30;3.75;;;15.10;99.90;;;;;;5009182;28;20061;-72
2022/10/27 04:05:36;;;;;;;20.13;4.85;;;15.00;99.90;;;;;;5017197;28;20026;-72
2022/10/27 04:08:02;;;;;;;15.07;4.30;;;15.00;99.90;;;;;;5005622;28;20042;-73
2022/10/27 04:10:27;;;;;;;12.55;4.53;;;15.00;99.90;;;;;;4999748;28;20026;-73
2022/10/27 04:12:55;;;;;;;15.52;4.90;;;15.00;99.90;;;;;;5000693;28;20022;-73
2022/10/27 04:15:25;;;;;;;9.02;4.55;;;15.00;99.90;;;;;;5000458;28;20485;-72
2022/10/27 04:17:59;;;;;;;9.63;4.75;;;15.00;99.90;;;;;;4997823;28;20029;-73
2022/10/27 04:20:26;;;;;;;11.82;4.18;;;14.90;99.90;;;;;;5001655;28;20092;-72
2022/10/27 04:22:56;;;;;;;16.33;4.57;;;15.00;99.90;;;;;;5002859;28;20398;-72
2022/10/27 04:25:23;;;;;;;16.10;4.57;;;15.00;99.90;;;;;;5017831;28;20030;-73
2022/10/27 04:28:00;;;;;;;9.00;4.10;;;14.90;99.90;;;;;;5001531;28;20026;-73
2022/10/27 04:30:26;;;;;;;9.60;4.68;;;14.90;99.90;;;;;;5001087;28;20034;-73
2022/10/27 04:32:54;;;;;;;13.57;4.30;;;14.90;99.90;;;;;;4997771;28;20026;-73
2022/10/27 04:35:19;;;;;;;9.10;4.43;;;14.90;99.90;;;;;;5002647;28;20021;-72
2022/10/27 04:37:45;;;;;;;12.73;4.40;;;14.90;99.90;;;;;;5000503;28;20081;-72
2022/10/27 04:40:11;;;;;;;13.85;4.05;;;14.90;99.90;;;;;;5007819;28;20468;-73
2022/10/27 04:42:36;;;;;;;10.98;4.15;;;14.90;99.90;;;;;;5002162;28;20030;-73
2022/10/27 04:45:04;;;;;;;14.82;4.75;;;14.90;99.90;;;;;;5002236;28;20049;-73
2022/10/27 04:47:30;;;;;;;11.02;4.05;;;14.90;99.90;;;;;;5003431;28;20150;-73
2022/10/27 04:49:56;;;;;;;8.15;3.92;;;14.90;99.90;;;;;;4999493;28;20057;-72
2022/10/27 04:52:21;;;;;;;8.40;4.60;;;14.90;99.90;;;;;;5003531;28;20034;-73
2022/10/27 04:54:47;;;;;;;15.55;4.15;;;14.90;99.90;;;;;;5000170;28;20463;-74
2022/10/27 04:57:12;;;;;;;9.95;3.83;;;14.90;99.90;;;;;;5004978;28;20072;-73
2022/10/27 04:59:38;;;;;;;16.25;4.50;;;14.90;99.90;;;;;;4998035;28;20129;-73
2022/10/27 05:02:03;;;;;;;14.77;4.38;;;14.90;99.90;;;;;;5017154;28;20022;-73
2022/10/27 05:04:31;;;;;;;13.75;4.22;;;14.90;99.90;;;;;;5004390;28;20101;-74
2022/10/27 05:06:57;;;;;;;8.20;3.55;;;14.90;99.90;;;;;;4998060;28;20464;-73
2022/10/27 05:09:22;;;;;;;16.13;4.43;;;14.90;99.90;;;;;;5016660;28;20092;-73
2022/10/27 05:11:48;;;;;;;12.48;3.90;;;14.90;99.90;;;;;;5001651;28;20435;-73
2022/10/27 05:14:13;;;;;;;12.25;3.33;;;14.90;99.90;;;;;;4999134;28;20372;-72
2022/10/27 05:16:39;;;;;;;7.13;3.70;;;14.90;99.90;;;;;;5001566;28;20034;-73
2022/10/27 05:19:04;;;;;;;7.10;3.47;;;14.90;99.90;;;;;;5008053;28;20444;-73
2022/10/27 05:21:31;;;;;;;10.32;3.60;;;14.90;99.90;;;;;;5004662;28;20032;-73
2022/10/27 05:23:57;;;;;;;8.85;4.03;;;15.00;99.90;;;;;;5000365;28;20343;-73
2022/10/27 05:26:22;;;;;;;8.63;2.88;;;15.00;99.90;;;;;;4999875;28;20117;-73
2022/10/27 05:28:48;;;;;;;10.48;3.53;;;15.00;99.90;;;;;;5020029;28;20384;-76
2022/10/27 05:31:14;;;;;;;9.40;3.35;;;15.00;99.90;;;;;;4997752;28;20675;-73
2022/10/27 05:33:39;;;;;;;12.65;3.80;;;15.00;99.90;;;;;;5004284;28;20030;-73
2022/10/27 05:36:07;;;;;;;12.45;3.40;;;15.00;99.90;;;;;;5000477;28;20545;-73
2022/10/27 05:38:33;;;;;;;7.68;3.33;;;15.00;99.90;;;;;;5016481;28;20462;-73
2022/10/27 05:40:59;;;;;;;11.25;3.42;;;15.00;99.90;;;;;;5000391;28;20041;-73
2022/10/27 05:43:24;;;;;;;9.98;3.17;;;15.00;99.90;;;;;;4999172;28;20483;-73
2022/10/27 05:45:52;;;;;;;13.90;3.53;;;15.00;99.90;;;;;;5000554;28;20041;-73
2022/10/27 05:48:18;;;;;;;17.52;3.60;;;15.00;99.90;;;;;;5001566;28;20030;-75
2022/10/27 05:50:43;;;;;;;6.82;3.05;;;15.00;99.90;;;;;;4999832;28;20021;-74
2022/10/27 05:53:09;;;;;;;9.57;3.63;;;15.00;99.90;;;;;;4998556;28;20084;-74
2022/10/27 05:55:35;;;;;;;9.02;3.25;;;15.00;99.90;;;;;;5004400;28;20026;-73
2022/10/27 05:58:04;;;;;;;6.63;2.90;;;15.00;99.90;;;;;;5005448;28;20034;-73
2022/10/27 06:00:36;;;;;;;7.25;3.03;;;15.00;99.90;;;;;;4998132;28;20022;-74
2022/10/27 06:03:06;;;;;;;9.38;2.72;;;15.00;99.90;;;;;;5002240;28;20026;-74
2022/10/27 06:05:34;;;;;;;11.05;3.65;;;14.90;99.90;;;;;;5003097;28;20510;-73
2022/10/27 06:08:00;;;;;;;10.27;3.35;;;14.90;99.90;;;;;;4999378;28;20069;-73
2022/10/27 06:10:28;;;;;;;9.52;3.53;;;14.90;99.90;;;;;;4999067;28;20034;-75
2022/10/27 06:13:03;;;;;;;13.23;3.30;;;14.90;99.90;;;;;;4999208;28;20027;-75
2022/10/27 06:15:29;;;;;;;10.00;2.65;;;14.90;99.90;;;;;;5001277;28;20035;-74
2022/10/27 06:17:55;;;;;;;8.52;3.17;;;15.00;99.90;;;;;;5002060;28;20030;-73
2022/10/27 06:20:21;;;;;;;7.97;3.00;;;14.90;99.90;;;;;;4996121;28;20037;-74
2022/10/27 06:22:49;;;;;;;10.18;2.83;;;14.90;99.90;;;;;;5004063;28;20025;-74
2022/10/27 06:25:15;;;;;;;6.53;2.95;;;14.90;99.90;;;;;;4995325;28;20030;-74
2022/10/27 06:27:43;;;;;;;6.45;3.00;;;14.90;99.90;;;;;;4996599;28;20095;-74
2022/10/27 06:30:09;;;;;;;9.75;3.17;;;14.90;99.90;;;;;;5006435;28;20030;-74
2022/10/27 06:32:41;;;;;;;16.17;3.70;;;15.00;99.90;;;;;;5008108;28;20041;-75
2022/10/27 06:35:08;;;;;;;6.97;2.65;;;14.90;99.90;;;;;;5005040;28;20038;-75
2022/10/27 06:37:38;;;;;;;13.27;3.15;;;15.00;99.90;;;;;;5011153;28;20037;-74
2022/10/27 06:40:05;;;;;;;8.85;3.28;;;15.00;99.90;;;;;;5002626;28;20034;-74
2022/10/27 06:42:33;;;;;;;16.30;3.60;;;15.00;99.90;;;;;;5001300;28;20044;-74
2022/10/27 06:44:58;;;;;;;8.55;3.42;;;15.10;99.90;;;;;;5007935;28;20017;-75
2022/10/27 06:47:24;;;;;;;6.25;3.45;;;15.10;99.90;;;;;;5001786;28;20345;-74
2022/10/27 06:49:50;;;;;;;6.63;2.78;;;15.10;99.90;;;;;;5004733;28;20026;-73
2022/10/27 06:52:15;;;;;;;10.68;2.90;;;15.20;99.90;;;;;;5001846;28;20463;-74
2022/10/27 06:54:42;;;;;;;8.00;2.88;;;15.30;99.90;;;;;;5003312;28;20110;-76
2022/10/27 06:57:10;;;;;;;9.30;3.30;;;15.30;99.90;;;;;;5014430;28;20031;-74
2022/10/27 06:59:36;;;;;;;5.82;2.80;;;15.40;99.90;;;;;;5005588;28;20022;-74
2022/10/27 07:02:04;;;;;;;6.30;2.63;;;15.50;99.90;;;;;;5009830;28;20033;-74
2022/10/27 07:04:32;;;;;;;9.85;3.28;;;15.60;99.90;;;;;;5001900;28;20029;-75
2022/10/27 07:06:58;;;;;;;7.43;3.00;;;15.70;99.90;;;;;;5006594;28;20033;-74
2022/10/27 07:09:23;;;;;;;10.10;2.70;;;16.00;99.90;;;;;;5006109;28;20030;-74
2022/10/27 07:11:51;;;;;;;9.60;2.97;;;16.20;99.90;;;;;;5006953;28;20169;-74
2022/10/27 07:14:16;;;;;;;8.15;3.13;;;16.40;99.90;;;;;;5003290;28;20022;-74
2022/10/27 07:16:42;;;;;;;5.50;2.63;;;16.40;99.90;;;;;;5002891;28;20023;-74
2022/10/27 07:19:12;;;;;;;7.38;2.50;;;16.30;99.90;;;;;;5005229;28;20022;-74
2022/10/27 07:21:38;;;;;;;9.10;3.20;;;16.30;99.90;;;;;;5008014;28;20018;-74
2022/10/27 07:24:04;;;;;;;6.28;2.42;;;16.30;99.90;;;;;;4998894;28;20041;-74
2022/10/27 07:26:34;;;;;;;5.07;2.78;;;16.30;99.90;;;;;;5004802;28;20038;-75
2022/10/27 07:28:59;;;;;;;6.30;2.67;;;16.30;99.90;;;;;;5016521;28;20034;-74
2022/10/27 07:31:25;;;;;;;6.88;2.95;;;16.40;99.90;;;;;;5002355;28;20026;-73
2022/10/27 07:33:51;;;;;;;10.30;2.80;;;16.50;99.90;;;;;;5001163;28;20076;-74
2022/10/27 07:36:16;;;;;;;9.73;2.70;;;16.50;99.90;;;;;;5005157;28;20034;-74
2022/10/27 07:38:42;;;;;;;8.68;2.75;;;16.50;99.90;;;;;;5006215;28;20023;-74
2022/10/27 07:41:07;;;;;;;8.88;4.03;;;16.50;99.90;;;;;;5000602;28;20359;-74
2022/10/27 07:43:35;;;;;;;19.10;5.43;;;16.60;99.90;;;;;;5003693;28;20030;-74
2022/10/27 07:46:01;;;;;;;10.68;2.42;;;16.70;99.90;;;;;;4996576;28;20017;-75
2022/10/27 07:48:27;;;;;;;6.53;2.58;;;16.80;99.90;;;;;;5002001;28;20030;-74
2022/10/27 07:50:54;;;;;;;10.25;2.55;;;16.80;99.90;;;;;;5004162;28;20022;-74
2022/10/27 07:53:19;;;;;;;6.65;2.90;;;16.90;99.90;;;;;;5002273;28;20104;-73
2022/10/27 07:55:45;;;;;;;12.63;2.95;;;16.90;99.90;;;;;;5004166;28;20093;-73
2022/10/27 07:58:13;;;;;;;11.73;3.22;;;17.00;99.90;;;;;;5001849;28;20029;-74
2022/10/27 08:00:42;;;;;;;8.15;3.10;;;17.10;99.90;;;;;;5005359;28;20025;-74
2022/10/27 08:03:11;;;;;;;8.88;3.10;;;17.10;99.90;;;;;;5001377;28;20451;-74
2022/10/27 08:05:36;;;;;;;9.32;2.95;;;17.20;99.90;;;;;;5008128;28;20093;-73
2022/10/27 08:08:05;;;;;;;11.32;3.28;;;17.40;99.90;;;;;;5000577;28;20054;-73
2022/10/27 08:10:32;;;;;;;20.25;5.60;;;17.50;99.90;;;;;;4998566;28;20105;-73
2022/10/27 08:12:58;;;;;;;16.95;4.78;;;17.60;99.90;;;;;;5000260;28;20030;-72
2022/10/27 08:15:24;;;;;;;18.65;7.50;;;17.60;99.90;;;;;;5001783;28;20041;-72
2022/10/27 08:17:51;;;;;;;8.50;3.75;;;17.80;99.90;;;;;;5012517;28;20096;-72
2022/10/27 08:20:17;;;;;;;9.50;3.28;;;17.90;99.90;;;;;;4997968;28;20015;-72
2022/10/27 08:22:43;;;;;;;9.20;3.35;;;18.10;99.90;;;;;;4998961;28;20117;-73
2022/10/27 08:25:08;;;;;;;7.50;3.95;;;18.20;99.90;;;;;;5001746;28;20455;-72
2022/10/27 08:27:34;;;;;;;17.52;3.65;;;18.30;99.90;;;;;;5001334;28;20057;-72
2022/10/27 08:30:00;;;;;;;8.75;3.25;;;18.40;99.90;;;;;;4999454;28;20037;-72
2022/10/27 08:32:25;;;;;;;9.73;3.55;;;18.50;99.90;;;;;;5000684;28;20038;-73
2022/10/27 08:34:53;;;;;;;10.32;3.35;;;18.60;99.90;;;;;;5003429;28;20938;-73
2022/10/27 08:37:19;;;;;;;10.32;3.05;;;18.70;99.90;;;;;;4999286;28;20149;-75
2022/10/27 08:39:45;;;;;;;9.25;3.38;;;18.90;99.90;;;;;;5005779;28;20495;-73
2022/10/27 08:42:32;;;;;;;27.13;4.13;;;18.90;99.90;;;;;;5001232;28;20092;-73
2022/10/27 08:45:36;;;;;;;9.35;3.70;;;19.00;99.90;;;;;;4999645;28;20057;-73
2022/10/27 08:48:08;;;;;;;7.82;3.10;;;19.30;99.90;;;;;;4948289;29;20016;-74
2022/10/27 08:50:41;;;;;;;16.10;3.37;;;19.40;99.90;;;;;;4994081;28;20026;-73
2022/10/27 08:53:15;;;;;;;7.30;3.15;;;19.50;99.90;;;;;;5004570;28;20077;-75
2022/10/27 08:55:51;;;;;;;6.15;3.15;;;19.70;99.90;;;;;;5008345;28;20027;-75
2022/10/27 08:58:27;;;;;;;5.32;2.60;;;20.00;99.90;;;;;;4991275;28;20083;-74
2022/10/27 09:01:23;;;;;;;7.97;2.90;;;20.30;99.90;;;;;;5001063;28;20022;-74
2022/10/27 09:04:16;;;;;;;10.68;2.85;;;20.40;99.90;;;;;;4992185;28;20077;-74
2022/10/27 09:06:55;;;;;;;8.52;3.00;;;20.60;99.90;;;;;;5002259;28;20030;-75
2022/10/27 09:10:11;;;;;;;9.75;2.90;;;20.80;99.90;;;;;;5018984;28;20017;-73
2022/10/27 09:12:36;;;;;;;10.07;2.85;;;21.00;99.90;;;;;;4959479;28;20023;-75
2022/10/27 09:15:02;;;;;;;7.78;3.10;;;21.10;99.90;;;;;;4985013;28;20344;-76
2022/10/27 09:17:37;;;;;;;13.25;2.63;;;21.20;99.90;;;;;;5000737;28;20040;-76
2022/10/27 09:20:23;;;;;;;7.57;2.85;;;21.20;99.90;;;;;;5002436;28;20038;-75
2022/10/27 09:22:52;;;;;;;5.43;2.13;;;21.30;99.90;;;;;;5008375;28;20213;-75
2022/10/27 09:25:20;;;;;;;8.75;2.67;;;21.20;99.90;;;;;;5008158;28;20022;-77
2022/10/27 09:27:50;;;;;;;9.90;2.92;;;21.40;99.90;;;;;;5000630;28;20026;-74
2022/10/27 09:30:16;;;;;;;9.57;2.25;;;21.60;99.90;;;;;;4999721;28;20030;-75
2022/10/27 09:32:47;;;;;;;7.63;2.55;;;21.60;99.90;;;;;;5000253;28;20026;-77
2022/10/27 09:35:24;;;;;;;8.85;2.25;;;21.60;99.90;;;;;;5002198;28;20049;-75
2022/10/27 09:37:55;;;;;;;5.30;2.13;;;21.80;99.90;;;;;;5005767;28;20058;-73
2022/10/27 09:40:23;;;;;;;6.60;2.55;;;21.90;99.90;;;;;;5006813;28;20022;-75
2022/10/27 09:42:54;;;;;;;11.55;2.15;;;22.10;99.90;;;;;;5002200;28;20026;-78
2022/10/27 09:45:27;;;;;;;14.45;2.08;;;22.40;99.10;;;;;;5012620;28;20031;-77
2022/10/27 09:48:09;;;;;;;7.22;2.10;;;22.70;98.80;;;;;;5001748;28;20057;-76
2022/10/27 09:50:52;;;;;;;9.00;2.35;;;23.10;98.30;;;;;;4999532;28;20762;-75
2022/10/27 09:53:35;;;;;;;4.80;1.83;;;23.70;96.50;;;;;;5002055;28;20030;-74
2022/10/27 09:56:08;;;;;;;4.55;1.90;;;24.00;95.40;;;;;;4997756;28;20029;-76
2022/10/27 09:59:00;;;;;;;8.07;2.65;;;24.50;93.70;;;;;;5003789;28;20030;-75
2022/10/27 10:01:44;;;;;;;4.40;2.10;;;24.50;93.70;;;;;;4998721;28;20102;-76
2022/10/27 10:04:19;;;;;;;6.95;2.08;;;24.40;93.60;;;;;;5005489;28;20087;-75
2022/10/27 10:06:57;;;;;;;5.28;1.77;;;24.40;93.20;;;;;;5000518;28;20450;-76
2022/10/27 10:09:25;;;;;;;6.53;1.80;;;24.30;92.30;;;;;;5003840;28;20018;-76
2022/10/27 10:11:51;;;;;;;14.25;2.15;;;24.30;92.50;;;;;;5006042;28;20030;-76
2022/10/27 10:14:22;;;;;;;10.60;2.13;;;24.30;93.10;;;;;;5004395;28;20025;-76
2022/10/27 10:16:51;;;;;;;2.67;2.15;;;24.30;92.80;;;;;;5002567;28;20452;-76
2022/10/27 10:19:22;;;;;;;7.60;2.00;;;24.60;92.00;;;;;;5003966;28;20366;-76
2022/10/27 10:21:59;;;;;;;6.03;2.10;;;24.70;91.50;;;;;;5002652;28;20113;-74
2022/10/27 10:24:35;;;;;;;9.38;1.88;;;25.00;91.10;;;;;;5006361;28;20022;-74
2022/10/27 10:27:04;;;;;;;9.52;2.42;;;24.80;88.70;;;;;;5005064;28;20031;-73
2022/10/27 10:29:37;;;;;;;4.32;1.58;;;24.70;90.50;;;;;;5002214;28;20069;-76
2022/10/27 10:32:08;;;;;;;5.78;1.60;;;24.80;88.00;;;;;;5001961;28;20022;-76
2022/10/27 10:34:34;;;;;;;6.30;2.00;;;24.90;89.00;;;;;;5005174;28;20073;-75
2022/10/27 10:37:00;;;;;;;5.00;1.63;;;25.10;87.10;;;;;;5002664;28;20022;-76
2022/10/27 10:39:27;;;;;;;2.80;1.55;;;24.90;86.80;;;;;;5013765;28;20037;-75
2022/10/27 10:42:08;;;;;;;9.50;1.83;;;24.90;86.10;;;;;;5002812;28;20030;-76
2022/10/27 10:44:35;;;;;;;3.50;1.83;;;25.00;85.90;;;;;;5005982;28;20030;-74
2022/10/27 10:47:01;;;;;;;2.30;1.80;;;25.00;85.60;;;;;;5003102;28;20057;-74
2022/10/27 10:49:40;;;;;;;3.00;1.42;;;25.10;85.50;;;;;;5001082;28;20030;-74
2022/10/27 10:52:21;;;;;;;8.32;1.88;;;25.10;84.40;;;;;;5007818;28;20104;-74
2022/10/27 10:54:47;;;;;;;5.05;1.42;;;25.10;84.80;;;;;;5002638;28;20030;-74
2022/10/27 10:57:31;;;;;;;5.50;2.00;;;25.50;84.70;;;;;;5003140;28;20077;-74
2022/10/27 11:00:00;;;;;;;4.00;1.48;;;25.80;82.10;;;;;;5005839;28;20028;-75
2022/10/27 11:02:28;;;;;;;9.60;1.60;;;26.10;82.30;;;;;;5001930;28;20034;-74
2022/10/27 11:05:09;;;;;;;5.70;1.80;;;26.20;80.30;;;;;;5003107;28;20030;-76
2022/10/27 11:07:35;;;;;;;5.22;1.83;;;26.10;79.30;;;;;;5006084;28;20189;-76
2022/10/27 11:10:14;;;;;;;5.75;1.90;;;25.90;81.10;;;;;;5003084;28;20109;-76
2022/10/27 11:12:48;;;;;;;3.42;1.60;;;26.20;81.10;;;;;;5004621;28;20048;-76
2022/10/27 11:15:34;;;;;;;6.50;2.00;;;26.30;79.40;;;;;;5005702;28;20022;-74
2022/10/27 11:18:14;;;;;;;4.03;1.92;;;26.50;79.90;;;;;;5002360;28;20029;-74
2022/10/27 11:20:41;;;;;;;7.15;1.92;;;26.40;79.00;;;;;;5001441;28;20018;-74
2022/10/27 11:23:29;;;;;;;6.70;2.20;;;26.20;79.10;;;;;;5008920;28;20029;-75
2022/10/27 11:26:02;;;;;;;6.78;2.00;;;26.20;79.30;;;;;;5011504;28;20183;-77
2022/10/27 11:28:36;;;;;;;5.68;2.42;;;26.00;79.60;;;;;;5007572;28;20083;-76
2022/10/27 11:31:35;;;;;;;4.80;2.13;;;25.90;80.10;;;;;;5003442;28;20033;-74
2022/10/27 11:34:40;;;;;;;6.55;1.88;;;25.60;80.30;;;;;;5011063;28;20056;-73
2022/10/27 11:37:13;;;;;;;4.60;2.05;;;25.40;80.80;;;;;;5004330;28;20058;-74
2022/10/27 11:39:49;;;;;;;6.78;2.03;;;25.30;80.80;;;;;;5006136;28;20037;-73
2022/10/27 11:42:37;;;;;;;4.25;1.90;;;25.20;81.60;;;;;;5006657;28;20112;-76
2022/10/27 11:45:28;;;;;;;4.18;2.15;;;25.20;81.60;;;;;;5006120;28;20367;-76
2022/10/27 11:48:06;;;;;;;5.28;1.85;;;25.20;81.70;;;;;;5001092;28;20104;-77
2022/10/27 11:50:58;;;;;;;6.40;1.80;;;25.30;81.70;;;;;;5006848;28;20474;-74
2022/10/27 11:53:26;;;;;;;6.38;2.03;;;25.30;81.70;;;;;;4995406;28;20049;-74
2022/10/27 11:56:09;;;;;;;5.40;2.13;;;25.40;82.40;;;;;;5003701;28;20019;-76
2022/10/27 11:58:41;;;;;;;8.50;2.38;;;25.40;80.90;;;;;;5001927;28;20021;-73
2022/10/27 12:01:29;;;;;;;6.03;2.78;;;25.30;81.60;;;;;;5016982;28;20022;-75
2022/10/27 12:04:16;;;;;;;8.02;2.13;;;25.40;82.10;;;;;;5008338;28;20030;-76
2022/10/27 12:07:03;;;;;;;5.95;2.40;;;25.30;82.40;;;;;;5010310;28;20466;-75
2022/10/27 12:09:52;;;;;;;13.18;2.00;;;25.40;81.90;;;;;;5002277;28;20064;-72
2022/10/27 12:12:35;;;;;;;8.80;2.42;;;25.30;81.10;;;;;;5001642;28;20034;-72
2022/10/27 12:15:22;;;;;;;8.70;2.65;;;25.20;81.50;;;;;;5000717;28;20033;-75
2022/10/27 12:18:21;;;;;;;7.90;2.63;;;25.30;81.50;;;;;;5011205;28;20018;-75
2022/10/27 12:20:53;;;;;;;10.20;2.60;;;25.50;82.40;;;;;;5006576;28;20018;-76
2022/10/27 12:23:30;;;;;;;7.40;2.80;;;25.60;81.40;;;;;;5011558;28;20061;-75
2022/10/27 12:26:10;;;;;;;9.15;2.97;;;25.30;82.60;;;;;;5002441;28;20041;-74
2022/10/27 12:28:39;;;;;;;8.20;2.58;;;25.20;82.60;;;;;;5000489;28;20030;-71
2022/10/27 12:31:14;;;;;;;7.10;2.95;;;25.30;83.20;;;;;;5002641;28;20089;-72
2022/10/27 12:33:57;;;;;;;5.95;2.55;;;25.30;82.60;;;;;;5003240;28;20042;-75
2022/10/27 12:36:56;;;;;;;5.30;2.58;;;25.30;82.50;;;;;;5007777;28;20023;-75
2022/10/27 12:39:39;;;;;;;8.93;2.45;;;25.30;83.00;;;;;;5001915;28;20026;-74
2022/10/27 12:42:38;;;;;;;10.70;2.30;;;25.50;83.30;;;;;;5003469;28;20237;-75
2022/10/27 12:45:18;;;;;;;5.50;2.75;;;25.70;82.10;;;;;;5001725;28;20026;-75
2022/10/27 12:47:59;;;;;;;10.63;3.25;;;25.60;82.10;;;;;;5004985;28;20038;-74
2022/10/27 12:51:03;;;;;;;4.70;2.85;;;25.60;82.60;;;;;;5019722;28;20418;-76
2022/10/27 12:53:43;;;;;;;9.98;2.83;;;25.60;82.40;;;;;;4983485;28;20119;-75
2022/10/27 12:56:24;;;;;;;5.90;2.58;;;25.50;82.70;;;;;;5002480;28;20028;-75
2022/10/27 12:58:56;;;;;;;10.48;2.95;;;25.40;82.00;;;;;;5002644;28;20022;-76
2022/10/27 13:01:33;;;;;;;12.63;2.55;;;25.10;82.00;;;;;;5002529;28;20083;-75
2022/10/27 13:04:17;;;;;;;4.90;2.50;;;25.10;83.30;;;;;;5004368;28;20073;-77
2022/10/27 13:06:45;;;;;;;3.25;2.13;;;25.20;82.40;;;;;;5016250;28;20048;-75